EST,Max TemperatureF,Mean TemperatureF,Min TemperatureF,Max Dew PointF,MeanDew PointF,Min DewpointF,Max Humidity, Mean Humidity, Min Humidity, Max Sea Level PressureIn, Mean Sea Level PressureIn, Min Sea Level PressureIn, Max VisibilityMiles, Mean VisibilityMiles, Min VisibilityMiles, Max Wind SpeedMPH, Mean Wind SpeedMPH, Max Gust SpeedMPH,PrecipitationIn, CloudCover, Events, WindDirDegrees
2012-12-1,60,48,35,48,39,34,100,80,42,30.42,30.38,30.35,10,6,0,6,3,,0.00,1,Fog,128
2012-12-2,59,47,35,48,42,36,100,81,63,30.41,30.31,30.21,10,7,0,13,3,20,0.00,2,Fog-Rain,182
2012-12-3,71,61,51,54,52,48,94,75,50,30.28,30.23,30.19,10,10,5,13,6,17,0.00,3,,234
2012-12-4,75,65,55,55,52,52,88,72,44,30.29,30.22,30.12,10,10,7,14,7,20,0.00,2,,190
2012-12-5,62,53,44,55,45,28,77,68,52,30.26,30.13,30.04,10,10,10,16,10,23,0.01,3,Rain,291
2012-12-6,44,37,30,30,27,21,93,65,52,30.38,30.31,30.25,10,10,10,12,7,18,0.00,0,,48
2012-12-7,60,45,30,55,43,28,94,83,67,30.27,30.13,29.99,10,10,10,13,4,20,0.00,6,Rain,142
2012-12-8,60,53,46,57,52,45,100,92,82,30.03,29.96,29.93,10,3,0,12,6,21,0.05,7,Fog-Rain,222
2012-12-9,62,54,46,55,50,45,100,92,77,30.16,30.09,30.01,10,2,0,9,3,18,0.01,6,Fog-Rain,142
2012-12-10,69,64,59,64,59,55,94,85,64,30.00,29.78,29.66,10,8,2,17,8,31,0.02,5,Rain,194
2012-12-11,68,58,46,57,43,34,82,68,58,30.19,29.96,29.68,10,10,10,16,9,28,0.00,6,,342
2012-12-12,48,45,42,34,27,25,62,49,40,30.39,30.32,30.20,10,10,10,13,8,17,0.00,4,,27
2012-12-13,53,44,33,36,33,28,87,62,47,30.37,30.35,30.31,10,10,10,17,9,22,0.00,1,,29
2012-12-14,51,40,28,36,31,27,100,76,38,30.35,30.30,30.23,10,9,5,8,2,,0.00,0,,288
2012-12-15,57,45,33,45,37,30,100,79,38,30.31,30.23,30.14,10,8,0,6,2,,0.00,1,Fog,119
2012-12-16,57,54,50,55,52,46,94,92,82,30.14,30.00,29.89,10,6,0,9,2,,0.48,8,Fog-Rain,115
2012-12-17,60,58,55,57,55,54,100,93,82,29.88,29.78,29.61,10,6,0,13,4,23,0.09,7,Fog-Rain,112
2012-12-18,62,55,48,55,48,37,88,71,48,29.82,29.65,29.58,10,10,10,17,11,26,0.00,4,,113
2012-12-19,55,45,35,39,37,34,93,67,47,30.17,29.97,29.81,10,10,10,16,7,23,0.00,1,,125
2012-12-20,57,45,33,55,39,30,94,75,54,30.21,30.05,29.59,10,10,7,23,6,36,0.06,2,Rain,120
2012-12-21,60,50,39,57,35,21,94,59,39,29.61,29.46,29.29,10,9,4,24,19,39,0.40,7,Rain,91
2012-12-22,46,42,35,27,24,21,70,49,37,30.05,29.83,29.61,10,10,10,32,16,50,0.00,2,,119
2012-12-23,50,39,28,30,26,16,93,60,26,30.11,30.03,29.96,10,10,10,14,4,20,0.00,0,,112
2012-12-24,53,42,32,43,37,28,93,75,53,30.07,29.99,29.90,10,10,10,12,4,17,0.00,4,Rain,127
2012-12-25,53,46,39,43,40,34,93,79,66,30.23,30.08,29.91,10,10,7,13,7,16,0.00,3,,126
2012-12-26,60,50,39,61,47,34,100,88,76,30.22,29.77,29.35,10,8,2,28,10,40,2.69,7,Rain-Thunderstorm,144
2012-12-27,48,44,39,45,32,25,93,64,50,30.01,29.73,29.40,10,10,10,32,20,45,0.00,2,,120
2012-12-28,44,40,35,32,29,27,87,67,57,30.15,30.09,30.01,10,10,10,20,9,26,0.00,3,,127
2012-12-29,48,42,35,46,38,28,93,85,53,30.05,29.75,29.52,10,8,2,25,5,39,0.34,6,Rain,128
2012-12-30,44,40,35,28,23,19,57,49,39,30.34,30.12,29.80,10,10,10,31,21,46,0.00,3,,127
2012-12-31,48,37,26,28,26,21,93,63,39,30.35,30.22,30.05,10,10,10,15,5,25,0.00,1,,111